createdAt,value
2022-08-08T00:02:03.182Z,4.97
2022-08-08T00:04:38.227Z,8.57
2022-08-08T00:07:22.908Z,8.40
2022-08-08T00:10:07.203Z,5.63
2022-08-08T00:12:48.390Z,6.10
2022-08-08T00:15:56.413Z,7.53
2022-08-08T00:18:22.021Z,7.90
2022-08-08T00:20:53.883Z,10.68
2022-08-08T00:23:43.069Z,8.73
2022-08-08T00:26:21.653Z,7.20
2022-08-08T00:28:55.449Z,9.77
2022-08-08T00:32:20.527Z,8.60
2022-08-08T00:34:57.572Z,6.88
2022-08-08T00:37:47.538Z,8.02
2022-08-08T00:41:07.589Z,8.48
2022-08-08T00:44:00.811Z,11.23
2022-08-08T00:47:04.482Z,6.90
2022-08-08T00:50:09.301Z,12.20
2022-08-08T00:52:54.139Z,10.00
2022-08-08T00:55:53.061Z,12.45
2022-08-08T00:58:54.499Z,9.68
2022-08-08T01:01:39.018Z,12.52
2022-08-08T01:04:29.830Z,9.48
2022-08-08T01:07:55.853Z,8.95
2022-08-08T01:11:13.578Z,9.77
2022-08-08T01:14:16.535Z,8.23
2022-08-08T01:17:51.524Z,11.10
2022-08-08T01:20:44.211Z,8.38
2022-08-08T01:24:05.603Z,7.68
2022-08-08T01:27:10.869Z,9.27
2022-08-08T01:30:23.062Z,10.95
2022-08-08T01:33:43.243Z,8.90
2022-08-08T01:36:55.680Z,10.25
2022-08-08T01:39:36.041Z,9.48
2022-08-08T01:42:17.767Z,10.07
2022-08-08T01:45:04.067Z,10.82
2022-08-08T01:48:14.380Z,22.20
2022-08-08T01:50:59.057Z,12.25
2022-08-08T01:55:16.386Z,17.77
2022-08-08T01:56:46.937Z,11.10
2022-08-08T02:00:02.948Z,11.77
2022-08-08T02:02:41.461Z,10.25
2022-08-08T02:05:33.901Z,10.98
2022-08-08T02:08:23.151Z,12.23
2022-08-08T02:11:22.991Z,15.50
2022-08-08T02:13:58.551Z,11.05
2022-08-08T02:16:35.705Z,13.05
2022-08-08T02:19:41.434Z,11.60
2022-08-08T02:22:27.961Z,13.30
2022-08-08T02:25:11.783Z,12.68
2022-08-08T02:27:55.980Z,12.82
2022-08-08T02:30:35.991Z,11.27
2022-08-08T02:33:15.424Z,10.87
2022-08-08T02:36:16.509Z,10.70
2022-08-08T02:38:56.117Z,13.38
2022-08-08T02:42:05.746Z,11.35
2022-08-08T02:45:21.338Z,10.52
2022-08-08T02:48:25.726Z,14.13
2022-08-08T02:51:46.327Z,14.30
2022-08-08T02:54:45.903Z,14.88
2022-08-08T02:57:52.283Z,11.35
2022-08-08T03:00:33.487Z,12.23
2022-08-08T03:05:00.298Z,12.73
2022-08-08T03:07:19.637Z,12.43
2022-08-08T03:10:44.786Z,13.23
2022-08-08T03:16:02.228Z,10.73
2022-08-08T03:16:48.958Z,12.75
2022-08-08T03:19:51.920Z,12.55
2022-08-08T03:22:38.712Z,15.55
2022-08-08T03:25:17.786Z,16.17
2022-08-08T03:27:56.355Z,16.25
2022-08-08T03:30:25.965Z,14.32
2022-08-08T03:33:54.700Z,14.20
2022-08-08T03:36:00.769Z,14.63
2022-08-08T03:38:54.276Z,15.27
2022-08-08T03:42:12.493Z,13.50
2022-08-08T03:44:07.410Z,14.23
2022-08-08T03:46:47.158Z,15.07
2022-08-08T03:49:59.091Z,11.65
2022-08-08T03:52:13.175Z,12.32
2022-08-08T03:55:02.035Z,13.65
2022-08-08T03:58:32.274Z,13.88
2022-08-08T04:03:00.525Z,16.52
2022-08-08T04:05:30.305Z,15.85
2022-08-08T04:08:00.727Z,14.23
2022-08-08T04:10:31.921Z,13.93
2022-08-08T04:13:03.730Z,14.85
2022-08-08T04:16:03.576Z,12.10
2022-08-08T04:18:38.219Z,16.65
2022-08-08T04:21:11.102Z,11.05
2022-08-08T04:24:05.756Z,14.38
2022-08-08T04:26:35.531Z,12.40
2022-08-08T04:29:15.029Z,12.40
2022-08-08T04:31:58.771Z,13.13
2022-08-08T04:34:32.370Z,11.10
2022-08-08T04:37:12.161Z,12.40
2022-08-08T04:40:03.905Z,10.85
2022-08-08T04:42:31.675Z,12.43
2022-08-08T04:45:02.279Z,10.75
2022-08-08T04:47:30.850Z,12.37
2022-08-08T04:50:04.780Z,12.13
2022-08-08T04:52:33.990Z,12.52
2022-08-08T04:55:04.369Z,11.73
2022-08-08T04:57:34.639Z,11.57
2022-08-08T05:00:06.851Z,11.50
2022-08-08T05:02:35.234Z,14.50
2022-08-08T05:05:03.452Z,11.68
2022-08-08T05:07:35.294Z,11.40
2022-08-08T05:10:12.832Z,14.13
2022-08-08T05:12:42.982Z,9.80
2022-08-08T05:16:36.415Z,8.82
2022-08-08T05:18:19.214Z,11.00
2022-08-08T05:20:52.259Z,12.50
2022-08-08T05:23:21.626Z,14.40
2022-08-08T05:25:50.070Z,9.70
2022-08-08T05:28:48.448Z,10.25
2022-08-08T05:31:19.180Z,10.68
2022-08-08T05:33:55.423Z,11.15
2022-08-08T05:36:28.225Z,7.88
2022-08-08T05:38:59.580Z,10.43
2022-08-08T05:41:28.013Z,9.63
2022-08-08T05:44:04.856Z,10.35
2022-08-08T05:46:36.514Z,8.68
2022-08-08T05:49:11.131Z,8.60
2022-08-08T05:51:49.194Z,11.93
2022-08-08T05:54:28.850Z,9.13
2022-08-08T05:57:15.389Z,11.30
2022-08-08T05:59:59.937Z,9.45
2022-08-08T06:02:54.951Z,8.00
2022-08-08T06:05:34.197Z,8.32
2022-08-08T06:08:20.468Z,7.15
2022-08-08T06:10:54.578Z,9.40
2022-08-08T06:13:23.510Z,10.15
2022-08-08T06:15:56.140Z,9.90
2022-08-08T06:18:27.320Z,6.95
2022-08-08T06:20:57.753Z,7.35
2022-08-08T06:23:52.480Z,11.15
2022-08-08T06:26:43.270Z,11.73
2022-08-08T06:29:18.681Z,9.70
2022-08-08T06:32:10.299Z,8.32
2022-08-08T06:34:56.394Z,6.65
2022-08-08T06:37:40.263Z,7.38
2022-08-08T06:40:15.912Z,11.05
2022-08-08T06:42:56.348Z,7.05
2022-08-08T06:45:25.320Z,6.23
2022-08-08T06:48:01.031Z,5.93
2022-08-08T06:50:33.565Z,5.78
2022-08-08T06:53:10.035Z,9.20
2022-08-08T06:55:43.185Z,6.35
2022-08-08T06:58:14.222Z,7.78
2022-08-08T07:00:47.955Z,4.70
2022-08-08T07:04:35.969Z,5.93
2022-08-08T07:06:26.903Z,3.72
2022-08-08T07:08:58.875Z,4.50
2022-08-08T07:11:45.958Z,5.82
2022-08-08T07:14:19.248Z,5.35
2022-08-08T07:16:54.307Z,5.25
2022-08-08T07:19:31.724Z,5.97
2022-08-08T07:22:18.423Z,4.88
2022-08-08T07:24:53.272Z,5.00
2022-08-08T07:27:27.908Z,4.50
2022-08-08T07:30:08.311Z,4.88
2022-08-08T07:32:42.176Z,4.95
2022-08-08T07:35:11.208Z,3.95
2022-08-08T07:37:55.749Z,4.85
2022-08-08T07:40:34.396Z,4.93
2022-08-08T07:43:08.621Z,5.45
2022-08-08T07:46:04.777Z,4.93
2022-08-08T07:48:29.625Z,5.70
2022-08-08T07:51:01.171Z,3.78
2022-08-08T07:54:01.486Z,2.90
2022-08-08T07:56:36.925Z,4.95
2022-08-08T07:59:11.267Z,4.53
2022-08-08T08:02:36.761Z,4.40
2022-08-08T08:04:40.005Z,2.58
2022-08-08T08:07:11.015Z,3.35
2022-08-08T08:09:42.524Z,4.63
2022-08-08T08:15:05.345Z,5.05
2022-08-08T08:17:44.138Z,6.25
2022-08-08T08:20:19.046Z,3.88
2022-08-08T08:22:47.641Z,3.08
2022-08-08T08:25:19.381Z,2.47
2022-08-08T08:28:05.372Z,2.53
2022-08-08T08:30:39.059Z,2.63
2022-08-08T08:33:11.210Z,3.27
2022-08-08T08:36:19.627Z,3.05
2022-08-08T08:38:28.213Z,4.55
2022-08-08T08:40:58.360Z,3.25
2022-08-08T08:43:29.098Z,3.05
2022-08-08T08:45:57.972Z,2.85
2022-08-08T08:48:32.434Z,1.52
2022-08-08T08:51:03.263Z,1.92
2022-08-08T08:53:58.917Z,3.15
2022-08-08T08:56:28.458Z,1.95
2022-08-08T08:58:58.350Z,2.95
2022-08-08T09:01:34.328Z,2.40
2022-08-08T09:04:09.986Z,2.45
2022-08-08T09:06:49.980Z,3.55
2022-08-08T09:09:37.520Z,2.35
2022-08-08T09:12:11.472Z,1.05
2022-08-08T09:14:45.007Z,1.67
2022-08-08T09:17:18.933Z,1.20
2022-08-08T09:22:02.628Z,1.35
2022-08-08T09:22:39.490Z,1.38
2022-08-08T09:25:09.709Z,1.30
2022-08-08T09:27:56.410Z,1.27
2022-08-08T09:30:28.230Z,1.27
2022-08-08T09:35:48.962Z,1.73
2022-08-08T09:38:32.025Z,1.63
2022-08-08T09:41:06.386Z,3.35
2022-08-08T09:44:06.217Z,1.25
2022-08-08T09:46:35.942Z,2.72
2022-08-08T09:49:41.419Z,1.00
2022-08-08T09:52:06.261Z,5.25
2022-08-08T09:54:42.149Z,0.90
2022-08-08T09:57:17.503Z,1.33
2022-08-08T10:00:27.583Z,2.25
2022-08-08T10:02:42.018Z,0.88
2022-08-08T10:05:25.296Z,2.92
2022-08-08T10:08:00.329Z,0.70
2022-08-08T10:10:31.675Z,1.10
2022-08-08T10:13:13.826Z,1.35
2022-08-08T10:16:00.585Z,0.85
2022-08-08T10:18:30.975Z,2.17
2022-08-08T10:21:22.867Z,1.17
2022-08-08T10:23:55.551Z,0.95
2022-08-08T10:26:51.971Z,2.63
2022-08-08T10:29:23.594Z,1.63
2022-08-08T10:32:15.930Z,1.23
2022-08-08T10:34:58.466Z,3.58
2022-08-08T10:37:31.803Z,1.05
2022-08-08T10:40:16.561Z,0.65
2022-08-08T10:42:46.454Z,1.65
2022-08-08T10:45:16.472Z,0.60
2022-08-08T10:47:55.382Z,0.77
2022-08-08T10:50:33.116Z,1.40
2022-08-08T10:53:07.582Z,0.95
2022-08-08T10:55:46.425Z,0.60
2022-08-08T10:58:16.010Z,0.55
2022-08-08T11:00:53.365Z,1.40
2022-08-08T11:04:00.321Z,1.20
2022-08-08T11:06:31.543Z,0.98
2022-08-08T11:09:09.616Z,1.88
2022-08-08T11:12:04.946Z,1.85
2022-08-08T11:14:27.701Z,0.63
2022-08-08T11:16:55.976Z,0.45
2022-08-08T11:19:30.214Z,0.70
2022-08-08T11:22:00.319Z,0.70
2022-08-08T11:24:36.020Z,1.00
2022-08-08T11:27:19.303Z,0.50
2022-08-08T11:29:58.359Z,1.58
2022-08-08T11:32:39.815Z,1.45
2022-08-08T11:35:27.868Z,0.45
2022-08-08T11:38:35.979Z,0.90
2022-08-08T11:40:52.699Z,1.48
2022-08-08T11:43:24.444Z,1.85
2022-08-08T11:46:09.510Z,1.48
2022-08-08T11:48:44.848Z,0.60
2022-08-08T11:51:29.993Z,0.70
2022-08-08T11:54:04.288Z,0.68
2022-08-08T11:56:35.030Z,0.50
2022-08-08T11:59:10.819Z,1.20
2022-08-08T12:01:39.715Z,2.15
2022-08-08T12:04:09.903Z,0.90
2022-08-08T12:06:42.859Z,1.73
2022-08-08T12:09:17.378Z,1.10
2022-08-08T12:11:49.602Z,1.00
2022-08-08T12:14:23.983Z,1.02
2022-08-08T12:16:57.690Z,4.47
2022-08-08T12:19:37.995Z,0.50
2022-08-08T12:22:21.096Z,0.60
2022-08-08T12:24:51.257Z,0.93
2022-08-08T12:27:22.354Z,0.68
2022-08-08T12:29:57.578Z,0.65
2022-08-08T12:35:13.394Z,0.50
2022-08-08T12:38:02.255Z,0.50
2022-08-08T12:40:54.399Z,0.60
2022-08-08T12:43:47.511Z,1.58
2022-08-08T12:46:26.429Z,1.58
2022-08-08T12:49:22.149Z,0.80
2022-08-08T12:51:49.971Z,3.55
2022-08-08T12:54:29.206Z,0.45
2022-08-08T12:56:57.403Z,0.80
2022-08-08T12:59:45.021Z,1.23
2022-08-08T13:02:28.628Z,0.60
2022-08-08T13:04:59.437Z,3.45
2022-08-08T13:08:03.487Z,1.45
2022-08-08T13:10:36.269Z,2.53
2022-08-08T13:13:08.031Z,2.30
2022-08-08T13:15:37.474Z,1.95
2022-08-08T13:18:11.715Z,0.52
2022-08-08T13:20:48.217Z,4.93
2022-08-08T13:23:36.524Z,1.20
2022-08-08T13:26:14.649Z,1.83
2022-08-08T13:28:45.959Z,0.52
2022-08-08T13:31:17.563Z,1.45
2022-08-08T13:33:50.161Z,0.88
2022-08-08T13:36:26.035Z,0.57
2022-08-08T13:38:54.843Z,0.93
2022-08-08T13:41:37.786Z,1.48
2022-08-08T13:44:11.068Z,1.13
2022-08-08T13:46:39.473Z,2.38
2022-08-08T13:50:34.978Z,0.63
2022-08-08T13:52:08.134Z,0.85
2022-08-08T13:54:38.478Z,0.45
2022-08-08T13:57:15.568Z,3.30
2022-08-08T13:59:48.527Z,0.73
2022-08-08T14:02:22.403Z,1.08
2022-08-08T14:05:09.191Z,2.83
2022-08-08T14:07:52.201Z,3.20
2022-08-08T14:10:33.091Z,0.50
2022-08-08T14:13:30.686Z,0.73
2022-08-08T14:16:03.395Z,0.43
2022-08-08T14:18:35.867Z,0.98
2022-08-08T14:21:07.881Z,1.30
2022-08-08T14:24:06.984Z,1.23
2022-08-08T14:26:29.984Z,1.20
2022-08-08T14:29:06.065Z,2.05
2022-08-08T14:32:09.965Z,0.98
2022-08-08T14:34:37.519Z,1.83
2022-08-08T14:37:08.317Z,2.13
2022-08-08T14:39:47.916Z,1.10
2022-08-08T14:44:57.403Z,1.20
2022-08-08T14:47:36.137Z,2.55
2022-08-08T14:50:16.134Z,0.95
2022-08-08T14:52:58.056Z,0.70
2022-08-08T14:55:41.093Z,1.25
2022-08-08T14:58:16.039Z,1.10
2022-08-08T15:00:47.856Z,1.75
2022-08-08T15:03:17.501Z,0.50
2022-08-08T15:05:52.346Z,1.50
2022-08-08T15:08:34.807Z,2.00
2022-08-08T15:11:09.045Z,0.90
2022-08-08T15:13:41.066Z,1.73
2022-08-08T15:16:27.841Z,0.50
2022-08-08T15:18:56.033Z,0.93
2022-08-08T15:21:27.640Z,0.60
2022-08-08T15:23:58.174Z,0.90
2022-08-08T15:26:29.294Z,0.60
2022-08-08T15:28:57.766Z,1.55
2022-08-08T15:32:03.212Z,2.15
2022-08-08T15:34:29.003Z,0.68
2022-08-08T15:37:02.262Z,4.13
2022-08-08T15:39:38.523Z,2.22
2022-08-08T15:42:13.286Z,0.98
2022-08-08T15:44:46.494Z,0.70
2022-08-08T15:47:19.122Z,1.15
2022-08-08T15:49:48.631Z,1.58
2022-08-08T15:52:18.044Z,1.52
2022-08-08T15:54:51.857Z,0.65
2022-08-08T15:57:21.258Z,0.82
2022-08-08T16:00:05.426Z,1.00
2022-08-08T16:02:50.577Z,0.60
2022-08-08T16:05:21.549Z,0.57
2022-08-08T16:07:53.855Z,3.15
2022-08-08T16:13:10.007Z,0.65
2022-08-08T16:13:30.357Z,1.85
2022-08-08T16:16:08.967Z,1.02
2022-08-08T16:18:41.674Z,1.80
2022-08-08T16:21:26.022Z,1.27
2022-08-08T16:23:55.557Z,0.55
2022-08-08T16:26:32.742Z,0.75
2022-08-08T16:29:02.204Z,1.02
2022-08-08T16:31:31.408Z,0.75
2022-08-08T16:34:01.587Z,1.00
2022-08-08T16:36:33.425Z,1.10
2022-08-08T16:39:09.970Z,1.45
2022-08-08T16:41:51.253Z,1.75
2022-08-08T16:44:28.135Z,0.93
2022-08-08T16:47:16.725Z,2.45
2022-08-08T16:49:47.846Z,2.28
2022-08-08T16:55:03.012Z,4.88
2022-08-08T16:55:25.054Z,2.25
2022-08-08T16:58:14.659Z,2.47
2022-08-08T17:00:48.739Z,2.03
2022-08-08T17:03:25.463Z,6.18
2022-08-08T17:06:39.716Z,2.60
2022-08-08T17:08:57.481Z,1.13
2022-08-08T17:11:28.421Z,1.33
2022-08-08T17:14:18.866Z,1.50
2022-08-08T17:16:51.747Z,2.25
2022-08-08T17:19:25.867Z,5.70
2022-08-08T17:21:56.064Z,1.25
2022-08-08T17:24:27.839Z,3.80
2022-08-08T17:26:58.679Z,1.13
2022-08-08T17:29:27.153Z,3.03
2022-08-08T17:31:55.111Z,1.70
2022-08-08T17:34:54.038Z,0.98
2022-08-08T17:37:15.385Z,1.25
2022-08-08T17:40:06.003Z,2.28
2022-08-08T17:42:35.488Z,1.08
2022-08-08T17:45:03.954Z,4.55
2022-08-08T17:47:40.321Z,1.67
2022-08-08T17:50:10.098Z,4.43
2022-08-08T17:52:43.230Z,2.17
2022-08-08T17:56:05.792Z,2.80
2022-08-08T17:57:59.783Z,3.35
2022-08-08T18:00:31.827Z,6.68
2022-08-08T18:03:07.405Z,4.65
2022-08-08T18:05:49.864Z,1.40
2022-08-08T18:08:25.077Z,1.60
2022-08-08T18:11:07.842Z,2.22
2022-08-08T18:15:48.635Z,3.63
2022-08-08T18:18:31.642Z,2.38
2022-08-08T18:21:10.366Z,5.85
2022-08-08T18:23:38.954Z,2.45
2022-08-08T18:26:08.042Z,2.08
2022-08-08T18:28:55.039Z,2.38
2022-08-08T18:31:25.051Z,1.80
2022-08-08T18:34:26.084Z,1.73
2022-08-08T18:36:44.458Z,2.40
2022-08-08T18:39:16.389Z,2.05
2022-08-08T18:41:58.257Z,3.60
2022-08-08T18:44:29.322Z,2.38
2022-08-08T18:47:02.670Z,1.13
2022-08-08T18:49:32.555Z,3.25
2022-08-08T18:52:18.125Z,1.05
2022-08-08T18:55:00.559Z,2.47
2022-08-08T18:57:41.480Z,1.33
2022-08-08T19:00:16.922Z,6.20
2022-08-08T19:02:55.428Z,2.03
2022-08-08T19:05:30.715Z,3.97
2022-08-08T19:08:04.177Z,2.28
2022-08-08T19:10:32.200Z,3.17
2022-08-08T19:13:03.120Z,2.25
2022-08-08T19:15:34.139Z,1.80
2022-08-08T19:18:32.158Z,2.25
2022-08-08T19:20:59.148Z,4.13
2022-08-08T19:23:27.607Z,1.47
2022-08-08T19:26:28.401Z,2.55
2022-08-08T19:28:44.563Z,1.67
2022-08-08T19:31:13.093Z,2.28
2022-08-08T19:34:04.083Z,1.65
2022-08-08T19:36:35.263Z,1.70
2022-08-08T19:39:03.209Z,3.38
2022-08-08T19:41:33.977Z,2.58
2022-08-08T19:44:12.620Z,2.42
2022-08-08T19:46:41.281Z,2.50
2022-08-08T19:49:10.614Z,2.08
2022-08-08T19:51:39.613Z,2.13
2022-08-08T19:54:11.461Z,2.88
2022-08-08T19:56:41.516Z,2.47
2022-08-08T19:59:18.803Z,3.22
2022-08-08T20:02:03.527Z,2.47
2022-08-08T20:04:35.022Z,1.63
2022-08-08T20:07:05.423Z,2.17
2022-08-08T20:09:56.641Z,1.52
2022-08-08T20:12:32.841Z,2.45
2022-08-08T20:15:10.389Z,1.73
2022-08-08T20:17:43.174Z,2.05
2022-08-08T20:20:19.212Z,3.03
2022-08-08T20:22:54.226Z,4.78
2022-08-08T20:25:26.570Z,2.22
2022-08-08T20:28:01.019Z,2.97
2022-08-08T20:30:52.542Z,2.72
2022-08-08T20:35:56.784Z,3.63
2022-08-08T20:38:29.135Z,3.75
2022-08-08T20:41:05.591Z,2.38
2022-08-08T20:43:43.732Z,2.88
2022-08-08T20:46:16.539Z,3.08
2022-08-08T20:48:45.376Z,8.90
2022-08-08T20:51:14.994Z,1.90
2022-08-08T20:53:59.262Z,4.30
2022-08-08T20:56:35.723Z,2.47
2022-08-08T20:59:08.829Z,2.35
2022-08-08T21:02:05.617Z,2.60
2022-08-08T21:04:27.566Z,2.15
2022-08-08T21:07:00.285Z,5.95
2022-08-08T21:09:31.713Z,5.85
2022-08-08T21:12:16.528Z,2.88
2022-08-08T21:14:49.230Z,4.45
2022-08-08T21:17:17.323Z,4.32
2022-08-08T21:19:47.549Z,2.70
2022-08-08T21:22:16.872Z,4.35
2022-08-08T21:24:53.526Z,2.45
2022-08-08T21:28:05.588Z,3.10
2022-08-08T21:30:19.431Z,4.63
2022-08-08T21:32:53.197Z,2.35
2022-08-08T21:36:16.874Z,3.83
2022-08-08T21:38:16.987Z,2.58
2022-08-08T21:40:56.315Z,7.05
2022-08-08T21:43:25.793Z,4.13
2022-08-08T21:48:04.360Z,2.38
2022-08-08T21:48:51.817Z,3.35
2022-08-08T21:54:31.568Z,6.30
2022-08-08T21:54:35.079Z,5.45
2022-08-08T21:57:00.199Z,2.78
2022-08-08T22:00:01.396Z,3.03
2022-08-08T22:02:19.450Z,2.90
2022-08-08T22:04:51.096Z,3.38
2022-08-08T22:07:19.521Z,3.10
2022-08-08T22:09:49.627Z,3.67
2022-08-08T22:12:17.552Z,1.98
2022-08-08T22:14:47.308Z,4.97
2022-08-08T22:17:19.130Z,3.75
2022-08-08T22:20:10.515Z,5.45
2022-08-08T22:22:36.115Z,3.50
2022-08-08T22:25:12.485Z,4.13
2022-08-08T22:28:03.657Z,4.78
2022-08-08T22:30:42.258Z,2.92
2022-08-08T22:34:10.933Z,4.90
2022-08-08T22:36:04.365Z,2.90
2022-08-08T22:38:48.899Z,2.95
2022-08-08T22:41:21.056Z,9.73
2022-08-08T22:44:01.202Z,5.38
2022-08-08T22:46:33.042Z,3.17
2022-08-08T22:49:01.185Z,3.72
2022-08-08T22:51:35.056Z,3.38
2022-08-08T22:54:30.569Z,5.80
2022-08-08T22:57:11.474Z,4.45
2022-08-08T22:59:48.553Z,4.95
2022-08-08T23:02:28.811Z,4.03
2022-08-08T23:04:57.640Z,4.30
2022-08-08T23:07:49.251Z,5.70
2022-08-08T23:10:19.525Z,3.95
2022-08-08T23:12:51.827Z,5.90
2022-08-08T23:16:37.611Z,1.95
2022-08-08T23:18:11.832Z,5.03
2022-08-08T23:20:40.944Z,2.33
2022-08-08T23:23:12.176Z,4.13
2022-08-08T23:25:48.576Z,3.65
2022-08-08T23:28:20.912Z,4.05
2022-08-08T23:30:52.000Z,3.47
2022-08-08T23:33:35.744Z,5.20
2022-08-08T23:36:09.307Z,4.22
2022-08-08T23:38:44.151Z,3.53
2022-08-08T23:41:22.761Z,2.90
2022-08-08T23:43:56.647Z,5.60
2022-08-08T23:49:01.450Z,3.35
2022-08-08T23:49:14.210Z,4.13
2022-08-08T23:52:06.234Z,3.13
2022-08-08T23:54:42.399Z,3.10
2022-08-08T23:57:27.659Z,4.43
